createdAt,value
2019-02-18T00:02:03.352Z,1009.87
2019-02-18T00:03:03.331Z,1009.92
2019-02-18T00:04:03.288Z,1009.94
2019-02-18T00:05:03.300Z,1009.96
2019-02-18T00:06:03.292Z,1009.88
2019-02-18T00:07:03.263Z,1009.90
2019-02-18T00:08:03.270Z,1009.94
2019-02-18T00:09:03.319Z,1009.93
2019-02-18T00:10:03.228Z,1009.94
2019-02-18T00:11:03.214Z,1009.90
2019-02-18T00:12:03.224Z,1009.90
2019-02-18T00:13:03.199Z,1009.91
2019-02-18T00:14:03.275Z,1009.92
2019-02-18T00:15:03.204Z,1009.93
2019-02-18T00:16:03.161Z,1009.93
2019-02-18T00:17:03.151Z,1009.94
2019-02-18T00:18:03.148Z,1009.93
2019-02-18T00:19:03.156Z,1009.91
2019-02-18T00:20:03.145Z,1009.93
2019-02-18T00:21:03.132Z,1009.98
2019-02-18T00:22:03.095Z,1009.94
2019-02-18T00:23:03.093Z,1009.92
2019-02-18T00:24:03.079Z,1009.93
2019-02-18T00:25:03.101Z,1009.94
2019-02-18T00:26:03.107Z,1009.99
2019-02-18T00:27:03.049Z,1010.00
2019-02-18T00:28:03.032Z,1009.99
2019-02-18T00:29:03.032Z,1009.98
2019-02-18T00:30:03.025Z,1009.97
2019-02-18T00:31:03.002Z,1009.95
2019-02-18T00:32:03.022Z,1009.97
2019-02-18T00:33:02.972Z,1009.92
2019-02-18T00:34:02.968Z,1009.92
2019-02-18T00:35:02.964Z,1009.94
2019-02-18T00:36:02.957Z,1009.92
2019-02-18T00:37:02.962Z,1009.93
2019-02-18T00:38:02.965Z,1009.93
2019-02-18T00:39:02.922Z,1009.88
2019-02-18T00:40:02.897Z,1009.88
2019-02-18T00:41:02.894Z,1009.88
2019-02-18T00:42:02.876Z,1009.91
2019-02-18T00:43:02.891Z,1009.94
2019-02-18T00:44:02.861Z,1009.91
2019-02-18T00:45:02.855Z,1009.94
2019-02-18T00:46:02.846Z,1009.96
2019-02-18T00:47:02.835Z,1009.95
2019-02-18T00:48:02.814Z,1009.99
2019-02-18T00:49:02.821Z,1010.01
2019-02-18T00:50:02.794Z,1010.00
2019-02-18T00:51:02.843Z,1010.00
2019-02-18T00:52:02.813Z,1009.96
2019-02-18T00:53:04.123Z,1010.02
2019-02-18T00:54:02.770Z,1010.00
2019-02-18T00:55:02.777Z,1010.02
2019-02-18T00:56:02.754Z,1010.02
2019-02-18T00:57:02.732Z,1009.98
2019-02-18T00:58:02.722Z,1010.02
2019-02-18T00:59:02.733Z,1009.99
2019-02-18T01:00:02.689Z,1010.02
2019-02-18T01:01:02.683Z,1010.02
2019-02-18T01:02:02.724Z,1009.98
2019-02-18T01:03:02.663Z,1010.05
2019-02-18T01:04:02.642Z,1010.03
2019-02-18T01:05:12.330Z,1010.01
2019-02-18T01:07:14.785Z,1010.04
2019-02-18T01:08:15.770Z,1010.05
2019-02-18T01:10:11.566Z,1010.05
2019-02-18T01:11:11.559Z,1010.04
2019-02-18T01:13:26.034Z,1010.07
2019-02-18T01:14:25.662Z,1010.02
2019-02-18T01:16:31.772Z,1010.07
2019-02-18T01:17:31.706Z,1010.05
2019-02-18T01:18:31.703Z,1010.03
2019-02-18T01:19:31.683Z,1010.05
2019-02-18T01:20:31.690Z,1010.03
2019-02-18T01:21:31.651Z,1010.04
2019-02-18T01:22:31.641Z,1010.03
2019-02-18T01:23:41.303Z,1010.03
2019-02-18T01:25:36.134Z,1010.02
2019-02-18T01:26:36.089Z,1009.99
2019-02-18T01:27:44.913Z,1009.97
2019-02-18T01:29:40.587Z,1009.97
2019-02-18T01:30:40.513Z,1009.97
2019-02-18T01:33:13.656Z,1009.99
2019-02-18T01:34:13.630Z,1009.99
2019-02-18T01:35:13.621Z,1010.00
2019-02-18T01:36:13.609Z,1010.01
2019-02-18T01:37:23.322Z,1009.98
2019-02-18T01:39:18.113Z,1009.93
2019-02-18T01:40:18.042Z,1009.98
2019-02-18T01:42:11.634Z,1009.96
2019-02-18T01:43:11.614Z,1009.92
2019-02-18T01:44:11.595Z,1009.93
2019-02-18T01:45:11.603Z,1009.91
2019-02-18T01:46:11.614Z,1009.88
2019-02-18T01:47:11.567Z,1009.89
2019-02-18T01:48:11.552Z,1009.90
2019-02-18T01:49:11.561Z,1009.88
2019-02-18T01:50:11.557Z,1009.87
2019-02-18T01:51:11.527Z,1009.90
2019-02-18T01:52:11.541Z,1009.88
2019-02-18T01:53:11.496Z,1009.85
2019-02-18T01:54:11.494Z,1009.85
2019-02-18T01:55:11.477Z,1009.83
2019-02-18T01:56:11.467Z,1009.83
2019-02-18T01:57:20.134Z,1009.83
2019-02-18T01:59:15.962Z,1009.80
2019-02-18T02:00:15.914Z,1009.75
2019-02-18T02:01:15.891Z,1009.71
2019-02-18T02:02:15.885Z,1009.71
2019-02-18T02:03:15.890Z,1009.72
2019-02-18T02:04:15.869Z,1009.69
2019-02-18T02:05:15.864Z,1009.66
2019-02-18T02:06:15.919Z,1009.64
2019-02-18T02:07:15.823Z,1009.62
2019-02-18T02:08:15.819Z,1009.62
2019-02-18T02:09:15.801Z,1009.68
2019-02-18T02:10:15.790Z,1009.60
2019-02-18T02:11:15.775Z,1009.60
2019-02-18T02:12:15.763Z,1009.57
2019-02-18T02:13:15.756Z,1009.58
2019-02-18T02:14:15.748Z,1009.56
2019-02-18T02:15:15.727Z,1009.58
2019-02-18T02:16:15.724Z,1009.57
2019-02-18T02:17:15.735Z,1009.58
2019-02-18T02:18:15.741Z,1009.54
2019-02-18T02:19:15.682Z,1009.59
2019-02-18T02:20:15.684Z,1009.55
2019-02-18T02:21:15.662Z,1009.52
2019-02-18T02:22:15.647Z,1009.51
2019-02-18T02:23:15.635Z,1009.48
2019-02-18T02:24:15.643Z,1009.49
2019-02-18T02:25:15.615Z,1009.48
2019-02-18T02:26:15.593Z,1009.49
2019-02-18T02:27:15.591Z,1009.44
2019-02-18T02:28:15.584Z,1009.44
2019-02-18T02:29:15.571Z,1009.42
2019-02-18T02:30:15.582Z,1009.43
2019-02-18T02:31:15.550Z,1009.41
2019-02-18T02:32:15.527Z,1009.39
2019-02-18T02:33:15.529Z,1009.43
2019-02-18T02:34:15.518Z,1009.42
2019-02-18T02:35:15.497Z,1009.41
2019-02-18T02:36:15.505Z,1009.41
2019-02-18T02:37:15.489Z,1009.41
2019-02-18T02:38:15.456Z,1009.39
2019-02-18T02:39:15.448Z,1009.42
2019-02-18T02:40:15.460Z,1009.40
2019-02-18T02:41:15.445Z,1009.37
2019-02-18T02:42:15.466Z,1009.39
2019-02-18T02:43:15.456Z,1009.35
2019-02-18T02:44:15.410Z,1009.37
2019-02-18T02:45:15.375Z,1009.36
2019-02-18T02:46:15.383Z,1009.40
2019-02-18T02:47:15.356Z,1009.36
2019-02-18T02:48:15.336Z,1009.39
2019-02-18T02:49:15.324Z,1009.38
2019-02-18T02:50:15.320Z,1009.36
2019-02-18T02:51:15.326Z,1009.37
2019-02-18T02:52:15.329Z,1009.34
2019-02-18T02:53:15.285Z,1009.34
2019-02-18T02:54:15.265Z,1009.37
2019-02-18T02:55:15.257Z,1009.38
2019-02-18T03:13:20.925Z,1009.34
2019-02-18T03:14:20.822Z,1009.39
2019-02-18T03:15:20.853Z,1009.35
2019-02-18T03:16:20.845Z,1009.35
2019-02-18T03:17:20.839Z,1009.33
2019-02-18T03:18:20.765Z,1009.35
2019-02-18T03:19:20.866Z,1009.36
2019-02-18T03:20:20.749Z,1009.36
2019-02-18T03:21:20.710Z,1009.36
2019-02-18T03:22:20.699Z,1009.33
2019-02-18T03:23:20.682Z,1009.33
2019-02-18T03:24:20.676Z,1009.33
2019-02-18T03:25:20.656Z,1009.39
2019-02-18T03:26:20.634Z,1009.34
2019-02-18T03:27:20.647Z,1009.35
2019-02-18T03:28:20.608Z,1009.40
2019-02-18T03:29:20.603Z,1009.41
2019-02-18T03:30:20.592Z,1009.44
2019-02-18T03:31:20.591Z,1009.42
2019-02-18T03:32:20.566Z,1009.43
2019-02-18T03:33:20.566Z,1009.43
2019-02-18T03:34:20.534Z,1009.39
2019-02-18T03:35:20.539Z,1009.42
2019-02-18T03:36:29.172Z,1009.44
2019-02-18T03:38:31.675Z,1009.46
2019-02-18T03:39:26.000Z,1009.46
2019-02-18T03:40:26.033Z,1009.44
2019-02-18T03:41:34.690Z,1009.45
2019-02-18T03:43:30.507Z,1009.47
2019-02-18T03:44:30.466Z,1009.49
2019-02-18T03:45:30.459Z,1009.48
2019-02-18T03:46:30.502Z,1009.46
2019-02-18T03:47:30.411Z,1009.47
2019-02-18T03:48:30.407Z,1009.51
2019-02-18T03:49:30.391Z,1009.50
2019-02-18T03:50:30.383Z,1009.51
2019-02-18T03:51:30.394Z,1009.51
2019-02-18T03:52:30.377Z,1009.53
2019-02-18T03:53:30.339Z,1009.50
2019-02-18T03:54:30.328Z,1009.49
2019-02-18T03:55:30.356Z,1009.50
2019-02-18T03:56:30.352Z,1009.49
2019-02-18T03:57:30.384Z,1009.51
2019-02-18T03:58:30.281Z,1009.49
2019-02-18T03:59:30.282Z,1009.50
2019-02-18T04:00:30.279Z,1009.48
2019-02-18T04:01:30.258Z,1009.51
2019-02-18T04:02:30.277Z,1009.52
2019-02-18T04:03:30.269Z,1009.53
2019-02-18T04:04:30.263Z,1009.55
2019-02-18T04:05:30.197Z,1009.53
2019-02-18T04:06:30.185Z,1009.53
2019-02-18T04:07:30.187Z,1009.57
2019-02-18T04:08:30.179Z,1009.55
2019-02-18T04:09:30.147Z,1009.55
2019-02-18T04:10:30.159Z,1009.58
2019-02-18T04:11:30.129Z,1009.63
2019-02-18T04:12:30.218Z,1009.59
2019-02-18T04:13:30.167Z,1009.55
2019-02-18T04:14:30.099Z,1009.56
2019-02-18T04:15:30.088Z,1009.59
2019-02-18T04:16:30.125Z,1009.61
2019-02-18T04:17:30.064Z,1009.57
2019-02-18T04:18:30.076Z,1009.60
2019-02-18T04:19:30.073Z,1009.61
2019-02-18T04:20:30.072Z,1009.61
2019-02-18T04:21:30.034Z,1009.60
2019-02-18T04:22:29.993Z,1009.59
2019-02-18T04:23:30.072Z,1009.62
2019-02-18T04:24:30.048Z,1009.57
2019-02-18T04:25:29.988Z,1009.60
2019-02-18T04:26:29.943Z,1009.60
2019-02-18T04:27:29.934Z,1009.61
2019-02-18T04:28:29.916Z,1009.62
2019-02-18T04:29:29.905Z,1009.61
2019-02-18T04:30:29.939Z,1009.60
2019-02-18T04:31:29.891Z,1009.60
2019-02-18T04:32:29.915Z,1009.62
2019-02-18T04:33:29.887Z,1009.57
2019-02-18T04:34:29.851Z,1009.60
2019-02-18T04:35:29.885Z,1009.57
2019-02-18T04:36:29.823Z,1009.59
2019-02-18T04:37:29.818Z,1009.58
2019-02-18T04:38:29.798Z,1009.59
2019-02-18T04:39:29.808Z,1009.63
2019-02-18T04:40:29.767Z,1009.63
2019-02-18T04:41:29.774Z,1009.62
2019-02-18T04:42:29.771Z,1009.61
2019-02-18T04:43:29.747Z,1009.60
2019-02-18T04:44:29.736Z,1009.63
2019-02-18T04:45:29.744Z,1009.60
2019-02-18T04:46:29.705Z,1009.60
2019-02-18T04:47:29.686Z,1009.62
2019-02-18T04:48:29.678Z,1009.59
2019-02-18T04:49:29.672Z,1009.60
2019-02-18T04:50:29.661Z,1009.56
2019-02-18T04:51:29.672Z,1009.58
2019-02-18T04:52:29.649Z,1009.60
2019-02-18T04:53:29.617Z,1009.58
2019-02-18T04:54:29.593Z,1009.60
2019-02-18T04:55:29.603Z,1009.59
2019-02-18T04:56:29.627Z,1009.56
2019-02-18T04:57:31.386Z,1009.60
2019-02-18T04:58:29.563Z,1009.62
2019-02-18T04:59:29.532Z,1009.57
2019-02-18T05:00:29.575Z,1009.65
2019-02-18T05:01:29.526Z,1009.64
2019-02-18T05:02:29.549Z,1009.58
2019-02-18T05:03:29.480Z,1009.57
2019-02-18T05:04:29.470Z,1009.61
2019-02-18T05:05:29.463Z,1009.58
2019-02-18T05:06:29.465Z,1009.56
2019-02-18T05:07:38.125Z,1009.53
2019-02-18T05:09:34.961Z,1009.52
2019-02-18T05:10:34.906Z,1009.52
2019-02-18T05:11:34.909Z,1009.51
2019-02-18T05:12:34.952Z,1009.51
2019-02-18T05:13:34.930Z,1009.46
2019-02-18T05:14:34.855Z,1009.49
2019-02-18T05:15:34.910Z,1009.49
2019-02-18T05:16:34.832Z,1009.47
2019-02-18T05:17:34.816Z,1009.44
2019-02-18T05:18:34.823Z,1009.49
2019-02-18T05:19:34.790Z,1009.48
2019-02-18T05:20:34.776Z,1009.48
2019-02-18T05:21:34.786Z,1009.48
2019-02-18T05:22:34.763Z,1009.47
2019-02-18T05:23:34.744Z,1009.49
2019-02-18T05:24:34.730Z,1009.47
2019-02-18T05:25:34.778Z,1009.52
2019-02-18T05:26:34.716Z,1009.46
2019-02-18T05:27:34.694Z,1009.44
2019-02-18T05:28:34.692Z,1009.44
2019-02-18T05:29:34.690Z,1009.44
2019-02-18T05:30:34.661Z,1009.45
2019-02-18T05:31:34.639Z,1009.45
2019-02-18T05:32:34.633Z,1009.42
2019-02-18T05:33:34.635Z,1009.44
2019-02-18T05:34:34.611Z,1009.43
2019-02-18T05:37:07.754Z,1009.48
2019-02-18T05:38:07.726Z,1009.46
2019-02-18T05:39:17.380Z,1009.46
2019-02-18T05:40:07.718Z,1009.47
2019-02-18T05:41:07.693Z,1009.45
2019-02-18T05:42:07.671Z,1009.44
2019-02-18T05:43:07.669Z,1009.42
2019-02-18T05:44:07.663Z,1009.42
2019-02-18T05:45:07.658Z,1009.48
2019-02-18T05:46:08.694Z,1009.48
2019-02-18T05:47:07.610Z,1009.48
2019-02-18T05:48:07.600Z,1009.47
2019-02-18T05:49:07.588Z,1009.47
2019-02-18T05:50:07.574Z,1009.44
2019-02-18T05:51:07.557Z,1009.42
2019-02-18T05:52:07.550Z,1009.43
2019-02-18T05:53:07.541Z,1009.43
2019-02-18T05:54:07.530Z,1009.40
2019-02-18T05:55:07.509Z,1009.38
2019-02-18T05:56:07.507Z,1009.40
2019-02-18T05:57:07.493Z,1009.39
2019-02-18T05:58:07.483Z,1009.40
2019-02-18T05:59:07.483Z,1009.40
2019-02-18T06:00:07.448Z,1009.40
2019-02-18T06:01:16.154Z,1009.38
2019-02-18T06:03:11.911Z,1009.39
2019-02-18T06:04:11.920Z,1009.41
2019-02-18T06:05:11.877Z,1009.42
2019-02-18T06:06:11.861Z,1009.43
2019-02-18T06:07:11.858Z,1009.40
2019-02-18T06:08:12.153Z,1009.41
2019-02-18T06:09:11.947Z,1009.42
2019-02-18T06:10:11.874Z,1009.47
2019-02-18T06:11:11.825Z,1009.43
2019-02-18T06:12:11.771Z,1009.40
2019-02-18T06:13:11.825Z,1009.44
2019-02-18T06:14:11.747Z,1009.43
2019-02-18T06:15:11.767Z,1009.40
2019-02-18T06:16:11.760Z,1009.37
2019-02-18T06:17:11.738Z,1009.40
2019-02-18T06:18:11.718Z,1009.39
2019-02-18T06:19:11.767Z,1009.35
2019-02-18T06:20:11.722Z,1009.33
2019-02-18T06:21:11.684Z,1009.35
2019-02-18T06:22:11.666Z,1009.36
2019-02-18T06:23:11.656Z,1009.36
2019-02-18T06:24:11.643Z,1009.33
2019-02-18T06:25:11.600Z,1009.34
2019-02-18T06:26:11.663Z,1009.40
2019-02-18T06:27:11.612Z,1009.41
2019-02-18T06:28:11.563Z,1009.40
2019-02-18T06:29:11.573Z,1009.38
2019-02-18T06:30:11.574Z,1009.39
2019-02-18T06:31:11.537Z,1009.39
2019-02-18T06:32:11.514Z,1009.41
2019-02-18T06:33:11.514Z,1009.41
2019-02-18T06:34:11.553Z,1009.41
2019-02-18T06:35:11.510Z,1009.43
2019-02-18T06:36:11.499Z,1009.43
2019-02-18T06:37:11.468Z,1009.43
2019-02-18T06:38:11.440Z,1009.39
2019-02-18T06:39:11.471Z,1009.38
2019-02-18T06:40:11.453Z,1009.37
2019-02-18T06:41:11.413Z,1009.43
2019-02-18T06:42:11.460Z,1009.39
2019-02-18T06:43:11.375Z,1009.37
2019-02-18T06:44:11.372Z,1009.39
2019-02-18T06:45:12.044Z,1009.38
2019-02-18T06:46:11.369Z,1009.40
2019-02-18T06:47:11.341Z,1009.43
2019-02-18T06:48:11.319Z,1009.42
2019-02-18T06:49:11.301Z,1009.43
2019-02-18T06:50:11.315Z,1009.43
2019-02-18T06:51:11.270Z,1009.45
2019-02-18T06:52:11.281Z,1009.48
2019-02-18T06:53:11.253Z,1009.51
2019-02-18T06:54:11.242Z,1009.51
2019-02-18T06:55:11.228Z,1009.49
2019-02-18T06:56:11.241Z,1009.50
2019-02-18T06:57:11.205Z,1009.52
2019-02-18T06:58:12.722Z,1009.50
2019-02-18T06:59:11.177Z,1009.50
2019-02-18T07:00:11.157Z,1009.48
2019-02-18T07:01:11.194Z,1009.51
2019-02-18T07:02:11.158Z,1009.50
2019-02-18T07:03:11.182Z,1009.51
2019-02-18T07:04:11.149Z,1009.53
2019-02-18T07:05:11.111Z,1009.52
2019-02-18T07:06:11.131Z,1009.50
2019-02-18T07:07:11.096Z,1009.52
2019-02-18T07:08:11.206Z,1009.56
2019-02-18T07:09:11.049Z,1009.57
2019-02-18T07:10:11.030Z,1009.58
2019-02-18T07:11:11.034Z,1009.63
2019-02-18T07:12:11.013Z,1009.60
2019-02-18T07:13:10.996Z,1009.63
2019-02-18T07:14:10.981Z,1009.65
2019-02-18T07:15:10.991Z,1009.67
2019-02-18T07:16:10.959Z,1009.64
2019-02-18T07:17:10.975Z,1009.65
2019-02-18T07:18:10.936Z,1009.64
2019-02-18T07:19:10.914Z,1009.65
2019-02-18T07:20:10.968Z,1009.63
2019-02-18T07:21:10.895Z,1009.66
2019-02-18T07:22:10.884Z,1009.62
2019-02-18T07:23:10.880Z,1009.61
2019-02-18T07:24:10.887Z,1009.63
2019-02-18T07:25:10.859Z,1009.64
2019-02-18T07:26:10.845Z,1009.67
2019-02-18T07:27:10.815Z,1009.64
2019-02-18T07:28:10.806Z,1009.69
2019-02-18T07:29:10.812Z,1009.63
2019-02-18T07:30:10.777Z,1009.63
2019-02-18T07:31:10.784Z,1009.66
2019-02-18T07:32:10.750Z,1009.65
2019-02-18T07:33:10.749Z,1009.65
2019-02-18T07:34:10.728Z,1009.65
2019-02-18T07:35:10.712Z,1009.72
2019-02-18T07:36:10.708Z,1009.69
2019-02-18T07:37:10.723Z,1009.72
2019-02-18T07:38:10.671Z,1009.68
2019-02-18T07:39:10.680Z,1009.71
2019-02-18T07:40:10.658Z,1009.70
2019-02-18T07:41:10.650Z,1009.65
2019-02-18T07:42:10.659Z,1009.67
2019-02-18T07:43:10.619Z,1009.69
2019-02-18T07:44:10.605Z,1009.69
2019-02-18T07:45:10.600Z,1009.69
2019-02-18T07:46:10.579Z,1009.71
2019-02-18T07:47:10.583Z,1009.66
2019-02-18T07:48:10.586Z,1009.69
2019-02-18T07:49:10.545Z,1009.71
2019-02-18T07:50:20.006Z,1009.71
2019-02-18T07:51:10.526Z,1009.67
2019-02-18T07:52:10.534Z,1009.65
2019-02-18T07:53:10.494Z,1009.66
2019-02-18T07:54:10.534Z,1009.64
2019-02-18T07:55:10.474Z,1009.65
2019-02-18T07:56:10.454Z,1009.65
2019-02-18T07:57:10.465Z,1009.64
2019-02-18T07:58:10.443Z,1009.65
2019-02-18T07:59:10.422Z,1009.62
2019-02-18T08:00:10.432Z,1009.67
2019-02-18T08:01:10.455Z,1009.66
2019-02-18T08:02:10.402Z,1009.64
2019-02-18T08:03:10.374Z,1009.61
2019-02-18T08:04:10.363Z,1009.60
2019-02-18T08:05:10.367Z,1009.61
2019-02-18T08:06:10.378Z,1009.57
2019-02-18T08:07:10.350Z,1009.52
2019-02-18T08:08:10.322Z,1009.55
2019-02-18T08:09:10.327Z,1009.54
2019-02-18T08:10:12.376Z,1009.53
2019-02-18T08:11:10.341Z,1009.55
2019-02-18T08:12:10.263Z,1009.53
2019-02-18T08:13:10.256Z,1009.53
2019-02-18T08:14:10.270Z,1009.50
2019-02-18T08:15:10.252Z,1009.50
2019-02-18T08:16:10.287Z,1009.56
2019-02-18T08:17:10.221Z,1009.52
2019-02-18T08:18:10.207Z,1009.52
2019-02-18T08:19:10.275Z,1009.52
2019-02-18T08:20:10.200Z,1009.50
2019-02-18T08:21:10.159Z,1009.56
2019-02-18T08:22:10.152Z,1009.51
2019-02-18T08:23:10.170Z,1009.51
2019-02-18T08:24:10.122Z,1009.49
2019-02-18T08:25:10.117Z,1009.50
2019-02-18T08:26:10.132Z,1009.50
2019-02-18T08:27:10.109Z,1009.49
2019-02-18T08:28:10.091Z,1009.47
2019-02-18T08:29:10.069Z,1009.48
2019-02-18T08:30:10.076Z,1009.45
2019-02-18T08:31:10.076Z,1009.47
2019-02-18T08:32:10.841Z,1009.45
2019-02-18T08:33:10.041Z,1009.45
2019-02-18T08:34:10.022Z,1009.45
2019-02-18T08:35:10.004Z,1009.44
2019-02-18T08:36:10.048Z,1009.50
2019-02-18T08:37:10.013Z,1009.47
2019-02-18T08:38:10.019Z,1009.49
2019-02-18T08:39:09.968Z,1009.53
2019-02-18T08:40:09.971Z,1009.48
2019-02-18T08:41:09.962Z,1009.51
2019-02-18T08:42:09.966Z,1009.49
2019-02-18T08:43:09.954Z,1009.43
2019-02-18T08:44:09.911Z,1009.45
2019-02-18T08:45:09.989Z,1009.50
2019-02-18T08:46:09.896Z,1009.42
2019-02-18T08:47:09.887Z,1009.44
2019-02-18T08:48:09.875Z,1009.46
2019-02-18T08:49:09.867Z,1009.46
2019-02-18T08:50:09.891Z,1009.47
2019-02-18T08:51:09.870Z,1009.50
2019-02-18T08:52:09.825Z,1009.48
2019-02-18T08:53:10.085Z,1009.43
2019-02-18T08:54:09.829Z,1009.44
2019-02-18T08:55:09.803Z,1009.44
2019-02-18T08:56:09.800Z,1009.48
2019-02-18T08:57:09.785Z,1009.50
2019-02-18T08:58:09.794Z,1009.51
2019-02-18T08:59:11.138Z,1009.53
2019-02-18T09:00:09.830Z,1009.50
2019-02-18T09:01:09.752Z,1009.53
2019-02-18T09:02:09.754Z,1009.50
2019-02-18T09:03:09.758Z,1009.47
2019-02-18T09:04:09.716Z,1009.48
2019-02-18T09:05:09.730Z,1009.49
2019-02-18T09:06:09.688Z,1009.49
2019-02-18T09:07:09.697Z,1009.49
2019-02-18T09:08:09.705Z,1009.48
2019-02-18T09:09:09.698Z,1009.46
2019-02-18T09:10:09.661Z,1009.52
2019-02-18T09:11:09.649Z,1009.49
2019-02-18T09:12:09.636Z,1009.53
2019-02-18T09:13:09.632Z,1009.48
2019-02-18T09:14:09.620Z,1009.49
2019-02-18T09:15:09.656Z,1009.45
2019-02-18T09:16:09.603Z,1009.44
2019-02-18T09:17:09.591Z,1009.48
2019-02-18T09:18:09.582Z,1009.45
2019-02-18T09:19:09.592Z,1009.47
2019-02-18T09:20:09.582Z,1009.47
2019-02-18T09:21:09.577Z,1009.46
2019-02-18T09:22:09.579Z,1009.47
2019-02-18T09:23:09.588Z,1009.45
2019-02-18T09:24:09.542Z,1009.48
2019-02-18T09:25:09.531Z,1009.47
2019-02-18T09:26:09.518Z,1009.47
2019-02-18T09:27:09.527Z,1009.43
2019-02-18T09:28:09.544Z,1009.48
2019-02-18T09:29:09.527Z,1009.50
2019-02-18T09:30:09.470Z,1009.46
2019-02-18T09:31:09.468Z,1009.44
2019-02-18T09:32:09.454Z,1009.44
2019-02-18T09:33:09.460Z,1009.41
2019-02-18T09:34:09.465Z,1009.44
2019-02-18T09:35:09.486Z,1009.44
2019-02-18T09:36:09.418Z,1009.45
2019-02-18T09:37:09.424Z,1009.45
2019-02-18T09:38:09.425Z,1009.43
2019-02-18T09:39:09.419Z,1009.41
2019-02-18T09:40:09.394Z,1009.40
2019-02-18T09:41:09.392Z,1009.37
2019-02-18T09:42:09.375Z,1009.39
2019-02-18T09:43:09.355Z,1009.36
2019-02-18T09:44:09.359Z,1009.37
2019-02-18T09:45:09.355Z,1009.35
2019-02-18T09:46:09.333Z,1009.38
2019-02-18T09:47:09.347Z,1009.33
2019-02-18T09:48:09.318Z,1009.36
2019-02-18T09:49:09.372Z,1009.36
2019-02-18T09:50:17.971Z,1009.32
2019-02-18T09:52:02.723Z,1009.32
2019-02-18T09:53:02.730Z,1009.35
2019-02-18T09:54:02.675Z,1009.30
2019-02-18T09:55:02.674Z,1009.35
2019-02-18T09:56:02.655Z,1009.34
2019-02-18T09:57:02.649Z,1009.34
2019-02-18T09:58:02.642Z,1009.32
2019-02-18T09:59:02.643Z,1009.33
2019-02-18T10:00:02.653Z,1009.33
2019-02-18T10:01:02.654Z,1009.33
2019-02-18T10:02:02.642Z,1009.34
2019-02-18T10:03:02.604Z,1009.37
2019-02-18T10:04:02.616Z,1009.33
2019-02-18T10:05:02.636Z,1009.33
2019-02-18T10:06:02.615Z,1009.26
2019-02-18T10:07:02.578Z,1009.28
2019-02-18T10:08:02.561Z,1009.29
2019-02-18T10:09:02.572Z,1009.26
2019-02-18T10:10:04.639Z,1009.25
2019-02-18T10:11:02.568Z,1009.26
2019-02-18T10:12:02.564Z,1009.28
2019-02-18T10:13:02.549Z,1009.27
2019-02-18T10:14:02.507Z,1009.27
2019-02-18T10:15:02.555Z,1009.25
2019-02-18T10:16:02.501Z,1009.24
2019-02-18T10:17:02.496Z,1009.23
2019-02-18T10:18:02.502Z,1009.25
2019-02-18T10:19:02.470Z,1009.25
2019-02-18T10:20:02.477Z,1009.21
2019-02-18T10:21:02.492Z,1009.25
2019-02-18T10:22:02.470Z,1009.23
2019-02-18T10:23:02.463Z,1009.21
2019-02-18T10:24:02.440Z,1009.19
2019-02-18T10:25:02.444Z,1009.19
2019-02-18T10:26:02.483Z,1009.18
2019-02-18T10:27:02.422Z,1009.18
2019-02-18T10:28:02.411Z,1009.15
2019-02-18T10:29:02.420Z,1009.16
2019-02-18T10:30:02.382Z,1009.14
2019-02-18T10:31:02.383Z,1009.12
2019-02-18T10:32:02.397Z,1009.07
2019-02-18T10:33:02.369Z,1009.05
2019-02-18T10:34:02.358Z,1009.02
2019-02-18T10:35:02.356Z,1009.08
2019-02-18T10:36:02.359Z,1009.08
2019-02-18T10:37:02.328Z,1009.03
2019-02-18T10:38:02.331Z,1009.04
2019-02-18T10:39:02.337Z,1009.00
2019-02-18T10:40:02.342Z,1008.99
2019-02-18T10:41:07.093Z,1008.98
2019-02-18T10:42:02.300Z,1008.98
2019-02-18T10:43:02.290Z,1008.98
2019-02-18T10:44:02.311Z,1008.96
2019-02-18T10:45:02.282Z,1008.96
2019-02-18T10:46:02.289Z,1008.92
2019-02-18T10:47:02.257Z,1008.92
2019-02-18T10:48:02.277Z,1008.90
2019-02-18T10:49:02.256Z,1008.90
2019-02-18T10:50:02.270Z,1008.91
2019-02-18T10:51:02.228Z,1008.88
2019-02-18T10:52:02.233Z,1008.89
2019-02-18T10:53:02.213Z,1008.89
2019-02-18T10:54:02.227Z,1008.81
2019-02-18T10:55:02.232Z,1008.80
2019-02-18T10:56:02.197Z,1008.78
2019-02-18T10:57:02.185Z,1008.75
2019-02-18T10:58:02.190Z,1008.73
2019-02-18T10:59:02.171Z,1008.70
2019-02-18T11:00:02.174Z,1008.70
2019-02-18T11:01:02.183Z,1008.67
2019-02-18T11:02:02.182Z,1008.66
2019-02-18T11:03:02.170Z,1008.67
2019-02-18T11:04:02.177Z,1008.67
2019-02-18T11:05:02.172Z,1008.61
2019-02-18T11:06:02.139Z,1008.61
2019-02-18T11:07:02.139Z,1008.61
2019-02-18T11:08:02.145Z,1008.61
2019-02-18T11:09:02.165Z,1008.58
2019-02-18T11:10:02.151Z,1008.55
2019-02-18T11:11:02.208Z,1008.53
2019-02-18T11:12:02.147Z,1008.50
2019-02-18T11:13:02.198Z,1008.52
2019-02-18T11:14:02.117Z,1008.47
2019-02-18T11:15:02.113Z,1008.47
2019-02-18T11:16:02.165Z,1008.45
2019-02-18T11:17:02.107Z,1008.43
2019-02-18T11:18:02.115Z,1008.40
2019-02-18T11:19:02.023Z,1008.38
2019-02-18T11:20:02.024Z,1008.40
2019-02-18T11:21:02.017Z,1008.36
2019-02-18T11:22:02.019Z,1008.37
2019-02-18T11:23:01.999Z,1008.36
2019-02-18T11:24:01.990Z,1008.33
2019-02-18T11:25:01.998Z,1008.34
2019-02-18T11:26:01.977Z,1008.29
2019-02-18T11:27:01.973Z,1008.29
2019-02-18T11:28:01.995Z,1008.25
2019-02-18T11:29:02.008Z,1008.24
2019-02-18T11:30:01.961Z,1008.27
2019-02-18T11:31:01.943Z,1008.22
2019-02-18T11:32:01.942Z,1008.20
2019-02-18T11:33:01.950Z,1008.21
2019-02-18T11:34:01.961Z,1008.15
2019-02-18T11:35:01.923Z,1008.12
2019-02-18T11:36:01.931Z,1008.12
2019-02-18T11:37:01.912Z,1008.08
2019-02-18T11:38:01.912Z,1008.10
2019-02-18T11:39:01.894Z,1008.09
2019-02-18T11:40:01.895Z,1008.07
2019-02-18T11:41:01.892Z,1008.05
2019-02-18T11:42:01.885Z,1007.98
2019-02-18T11:43:01.874Z,1008.01
2019-02-18T11:44:01.861Z,1007.96
2019-02-18T11:45:01.866Z,1007.93
2019-02-18T11:46:01.878Z,1007.92
2019-02-18T11:47:01.857Z,1007.92
2019-02-18T11:48:01.859Z,1007.89
2019-02-18T11:49:01.838Z,1007.93
2019-02-18T11:50:01.823Z,1007.89
2019-02-18T11:51:01.835Z,1007.92
2019-02-18T11:52:01.816Z,1007.89
2019-02-18T11:53:01.824Z,1007.90
2019-02-18T11:54:01.834Z,1007.88
2019-02-18T11:55:01.806Z,1007.88
2019-02-18T11:56:01.803Z,1007.83
2019-02-18T11:57:01.799Z,1007.84
2019-02-18T11:58:01.790Z,1007.83
2019-02-18T11:59:01.785Z,1007.82
2019-02-18T12:00:01.767Z,1007.80
2019-02-18T12:01:01.767Z,1007.80
2019-02-18T12:02:01.779Z,1007.78
2019-02-18T12:03:06.825Z,1007.74
2019-02-18T12:04:01.755Z,1007.69
2019-02-18T12:05:01.766Z,1007.68
2019-02-18T12:06:01.734Z,1007.67
2019-02-18T12:07:01.734Z,1007.62
2019-02-18T12:08:01.727Z,1007.58
2019-02-18T12:09:01.720Z,1007.60
2019-02-18T12:10:01.715Z,1007.54
2019-02-18T12:11:01.707Z,1007.55
2019-02-18T12:12:01.713Z,1007.58
2019-02-18T12:13:01.710Z,1007.50
2019-02-18T12:14:01.693Z,1007.53
2019-02-18T12:15:01.689Z,1007.49
2019-02-18T12:16:01.674Z,1007.50
2019-02-18T12:17:01.684Z,1007.51
2019-02-18T12:18:01.670Z,1007.45
2019-02-18T12:19:01.703Z,1007.43
2019-02-18T12:20:01.678Z,1007.45
2019-02-18T12:21:01.649Z,1007.40
2019-02-18T12:22:01.651Z,1007.37
2019-02-18T12:23:01.637Z,1007.34
2019-02-18T12:24:01.657Z,1007.28
2019-02-18T12:25:01.649Z,1007.27
2019-02-18T12:26:01.674Z,1007.28
2019-02-18T12:27:01.617Z,1007.23
2019-02-18T12:28:01.617Z,1007.24
2019-02-18T12:29:01.613Z,1007.21
2019-02-18T12:30:01.630Z,1007.18
2019-02-18T12:31:01.608Z,1007.16
2019-02-18T12:32:01.595Z,1007.16
2019-02-18T12:33:01.590Z,1007.15
2019-02-18T12:34:01.614Z,1007.15
2019-02-18T12:35:01.629Z,1007.10
2019-02-18T12:36:01.593Z,1007.06
2019-02-18T12:37:01.569Z,1007.07
2019-02-18T12:38:01.578Z,1007.06
2019-02-18T12:39:01.568Z,1007.10
2019-02-18T12:40:01.557Z,1007.05
2019-02-18T12:41:01.551Z,1007.08
2019-02-18T12:42:01.543Z,1007.04